Time;durP1;ratioP1;P1;durP2;ratioP2;P2;SDS_P1;SDS_P2;PMS_P1;PMS_P2;Temp;Humidity;BMP_temperature;BMP_pressure;BME280_temperature;BME280_humidity;BME280_pressure;Samples;Min_cycle;Max_cycle;Signal;HPM_P1;HPM_P2
2021/05/18 00:00:55;;;;;;;12.83;8.10;;;;;;;-144.99;nan;52382.88;4993388;28;20612;-61
2021/05/18 00:03:21;;;;;;;15.80;9.30;;;;;;;-144.99;nan;52415.47;4993373;28;20204;-60
2021/05/18 00:05:50;;;;;;;15.23;9.70;;;;;;;-144.99;nan;52395.09;4993506;28;20203;-60
2021/05/18 00:08:17;;;;;;;18.63;7.80;;;;;;;-144.99;nan;52417.53;4993183;28;20207;-61
2021/05/18 00:13:35;;;;;;;9.47;5.87;;;;;;;-144.99;nan;52374.72;4992608;28;20223;-61
2021/05/18 00:16:05;;;;;;;7.90;5.50;;;;;;;-144.99;nan;52403.25;4992948;28;20218;-61
2021/05/18 00:18:35;;;;;;;10.17;6.50;;;;;;;-144.99;nan;52370.63;4992659;28;20207;-60
2021/05/18 00:21:02;;;;;;;11.53;5.30;;;;;;;-144.99;nan;52395.09;4992954;28;20457;-64
2021/05/18 00:23:29;;;;;;;14.47;5.73;;;;;;;-144.99;nan;52391.03;4992220;28;20685;-64
2021/05/18 00:25:55;;;;;;;8.10;4.97;;;;;;;-144.99;nan;52403.25;4992319;28;20211;-64
2021/05/18 00:28:24;;;;;;;16.20;6.93;;;;;;;-144.99;nan;52415.47;4992434;28;20211;-67
2021/05/18 00:30:57;;;;;;;8.00;5.23;;;;;;;-144.99;nan;52413.44;4985075;28;20208;-67
2021/05/18 00:33:24;;;;;;;8.50;4.27;;;;;;;-144.99;nan;52411.41;4992068;28;20227;-66
2021/05/18 00:35:54;;;;;;;11.97;6.93;;;;;;;-144.99;nan;52411.41;4985972;28;20207;-68
2021/05/18 00:38:20;;;;;;;9.40;7.30;;;;;;;-144.99;nan;52370.63;4991051;28;20262;-68
2021/05/18 00:40:48;;;;;;;9.03;6.10;;;;;;;-144.99;nan;52411.41;4992296;28;20210;-66
2021/05/18 00:43:20;;;;;;;6.60;4.07;;;;;;;-144.99;nan;52397.13;4992337;28;20558;-67
2021/05/18 00:45:48;;;;;;;10.67;4.63;;;;;;;-144.99;nan;52388.97;4992649;28;20214;-68
2021/05/18 00:48:20;;;;;;;7.70;5.33;;;;;;;-144.99;nan;52386.94;4991952;28;20234;-68
2021/05/18 00:50:52;;;;;;;8.73;4.37;;;;;;;-144.99;nan;52366.56;4992403;28;20211;-68
2021/05/18 00:53:18;;;;;;;8.93;4.83;;;;;;;-144.99;nan;52415.47;4992162;28;20331;-67
2021/05/18 00:55:52;;;;;;;9.10;5.30;;;;;;;-144.99;nan;52415.47;4991986;28;20654;-68
2021/05/18 00:58:27;;;;;;;7.93;5.57;;;;;;;-144.99;nan;52358.41;4991481;28;20269;-61
2021/05/18 01:00:54;;;;;;;9.50;5.53;;;;;;;-144.99;nan;52427.72;4989648;28;20269;-61
2021/05/18 01:03:22;;;;;;;9.57;6.23;;;;;;;-144.99;nan;52358.41;4992221;28;20208;-61
2021/05/18 01:08:36;;;;;;;8.27;5.60;;;;;;;-144.99;nan;52433.81;4989173;28;20219;-62
2021/05/18 01:11:06;;;;;;;12.90;5.80;;;;;;;-144.99;nan;52415.47;4992025;28;20590;-62
2021/05/18 01:13:36;;;;;;;11.47;4.73;;;;;;;-144.99;nan;52401.22;4991386;28;20223;-63
2021/05/18 01:16:07;;;;;;;13.97;7.30;;;;;;;-144.99;nan;52407.31;4991806;28;20207;-62
2021/05/18 01:18:42;;;;;;;13.93;6.53;;;;;;;-144.99;nan;52407.31;4991445;28;20211;-62
2021/05/18 01:21:13;;;;;;;11.30;5.70;;;;;;;-144.99;nan;52417.53;4992072;28;20210;-62
2021/05/18 01:23:45;;;;;;;9.27;4.73;;;;;;;-144.99;nan;52407.31;4990150;28;20207;-63
2021/05/18 01:26:18;;;;;;;12.27;5.80;;;;;;;-144.99;nan;52403.25;4991322;28;20235;-63
2021/05/18 01:28:45;;;;;;;10.57;5.30;;;;;;;-144.99;nan;52382.88;4991170;28;20211;-62
2021/05/18 01:31:13;;;;;;;12.33;4.93;;;;;;;-144.99;nan;52403.25;4992088;28;20207;-63
2021/05/18 01:33:42;;;;;;;9.17;4.87;;;;;;;-144.99;nan;52437.91;4991894;28;20301;-62
2021/05/18 01:36:11;;;;;;;11.23;6.33;;;;;;;-144.99;nan;52388.97;4991559;28;20210;-64
2021/05/18 01:38:42;;;;;;;8.33;4.60;;;;;;;-144.99;nan;52374.72;4991436;28;20211;-64
2021/05/18 01:43:56;;;;;;;6.57;4.30;;;;;;;-144.99;nan;52354.34;4990910;28;20317;-64
2021/05/18 01:46:29;;;;;;;13.10;5.33;;;;;;;-144.99;nan;52354.34;4991254;28;20231;-63
2021/05/18 01:49:00;;;;;;;10.13;5.23;;;;;;;-144.99;nan;52391.03;4986534;28;20254;-64
2021/05/18 01:51:35;;;;;;;8.17;4.20;;;;;;;-144.99;nan;52397.13;4990726;28;20204;-63
2021/05/18 01:54:09;;;;;;;7.93;4.10;;;;;;;-144.99;nan;52378.78;4990457;28;20715;-63
2021/05/18 01:56:47;;;;;;;9.13;5.60;;;;;;;-144.99;nan;52452.16;4990918;28;20600;-64
2021/05/18 01:59:19;;;;;;;16.33;6.33;;;;;;;-144.99;nan;52382.88;4990913;28;20262;-62
2021/05/18 02:01:47;;;;;;;10.73;3.87;;;;;;;-144.99;nan;52358.41;4990694;28;20204;-62
2021/05/18 02:04:35;;;;;;;8.97;5.70;;;;;;;-144.99;nan;52401.22;4991147;28;20211;-63
2021/05/18 02:07:07;;;;;;;9.23;5.17;;;;;;;-144.99;nan;52393.06;4987288;28;20223;-62
2021/05/18 02:09:36;;;;;;;11.60;5.23;;;;;;;-144.99;nan;52407.31;4989956;28;20262;-62
2021/05/18 02:12:09;;;;;;;12.50;5.93;;;;;;;-144.99;nan;52403.25;4990201;28;20204;-62
2021/05/18 02:14:37;;;;;;;11.80;6.03;;;;;;;-144.99;nan;52407.31;4991702;28;20231;-63
2021/05/18 02:17:16;;;;;;;15.10;6.73;;;;;;;-144.99;nan;52386.94;4990975;28;20314;-63
2021/05/18 02:25:24;;;;;;;10.47;5.33;;;;;;;-144.99;nan;52374.72;4990934;28;20723;-62
2021/05/18 02:27:58;;;;;;;8.63;4.77;;;;;;;-144.99;nan;52427.72;4986429;28;20231;-62
2021/05/18 02:30:26;;;;;;;12.13;5.57;;;;;;;-144.99;nan;52427.72;4988076;28;20227;-63
2021/05/18 02:32:55;;;;;;;13.13;5.97;;;;;;;-144.99;nan;52382.88;4990255;28;20570;-61
2021/05/18 02:35:24;;;;;;;13.00;5.70;;;;;;;-144.99;nan;52395.09;4990675;28;20212;-61
2021/05/18 02:37:53;;;;;;;8.43;5.67;;;;;;;-144.99;nan;52393.06;4986889;28;20223;-61
2021/05/18 02:40:23;;;;;;;9.43;5.40;;;;;;;-144.99;nan;52409.38;4990750;28;20204;-61
2021/05/18 02:42:55;;;;;;;11.47;6.43;;;;;;;-144.99;nan;52403.25;4987983;28;20196;-62
2021/05/18 02:45:28;;;;;;;15.00;5.77;;;;;;;-144.99;nan;52388.97;4990231;28;20204;-63
2021/05/18 02:50:35;;;;;;;13.03;5.00;;;;;;;-144.99;nan;52362.50;4970812;28;20215;-63
2021/05/18 02:53:02;;;;;;;9.53;4.33;;;;;;;-144.99;nan;52423.63;4989503;28;20501;-62
2021/05/18 02:55:35;;;;;;;10.27;5.07;;;;;;;-144.99;nan;52415.47;4990162;28;20654;-62
2021/05/18 02:58:01;;;;;;;7.80;5.27;;;;;;;-144.99;nan;52415.47;4989810;28;20399;-62
2021/05/18 03:00:33;;;;;;;16.13;7.50;;;;;;;-144.99;nan;52413.44;4990273;28;20207;-63
2021/05/18 03:02:59;;;;;;;9.43;5.00;;;;;;;-144.99;nan;52413.44;4989526;28;20211;-66
2021/05/18 03:05:30;;;;;;;9.70;6.23;;;;;;;-144.99;nan;52415.47;4989982;28;20211;-64
2021/05/18 03:07:56;;;;;;;8.63;4.43;;;;;;;-144.99;nan;52427.72;4990037;28;20231;-64
2021/05/18 03:10:26;;;;;;;9.60;7.03;;;;;;;-144.99;nan;52439.94;4989121;28;20218;-63
2021/05/18 03:12:54;;;;;;;9.00;4.70;;;;;;;-144.99;nan;52427.72;4989652;28;20231;-63
2021/05/18 03:15:23;;;;;;;8.23;5.20;;;;;;;-144.99;nan;52450.13;4989600;28;20659;-63
2021/05/18 03:17:52;;;;;;;9.40;4.77;;;;;;;-144.99;nan;52399.19;4984647;28;20235;-62
2021/05/18 03:20:18;;;;;;;13.10;5.13;;;;;;;-144.99;nan;52431.78;4989818;28;20211;-63
2021/05/18 03:22:47;;;;;;;6.87;5.47;;;;;;;-144.99;nan;52415.47;4989037;28;20662;-63
2021/05/18 03:25:15;;;;;;;13.80;6.53;;;;;;;-144.99;nan;52444.03;4993380;28;20473;-63
2021/05/18 03:27:42;;;;;;;11.00;5.63;;;;;;;-144.99;nan;52431.78;4992849;28;20733;-63
2021/05/18 03:30:24;;;;;;;11.20;5.60;;;;;;;-144.99;nan;52401.22;4993270;28;20314;-62
2021/05/18 03:35:41;;;;;;;8.17;5.83;;;;;;;-144.99;nan;52407.31;4993334;28;20576;-62
2021/05/18 03:38:14;;;;;;;10.77;5.97;;;;;;;-144.99;nan;52391.03;4993136;28;20219;-62
2021/05/18 03:40:44;;;;;;;9.30;5.47;;;;;;;-144.99;nan;52407.31;4993427;28;20298;-62
2021/05/18 03:43:21;;;;;;;8.17;6.60;;;;;;;-144.99;nan;52374.72;4992196;28;20282;-62
2021/05/18 03:48:37;;;;;;;19.07;7.27;;;;;;;-144.99;nan;52386.94;4993019;28;20218;-62
2021/05/18 03:48:42;;;;;;;10.27;5.93;;;;;;;-144.99;nan;52374.72;4993451;28;20383;-61
2021/05/18 03:53:59;;;;;;;11.47;5.40;;;;;;;-144.99;nan;52403.25;4954781;28;20227;-62
2021/05/18 04:04:52;;;;;;;15.40;7.97;;;;;;;-144.99;nan;52415.47;4994346;28;20218;-64
2021/05/18 04:12:51;;;;;;;13.33;6.80;;;;;;;-144.99;nan;52431.78;4993556;28;20243;-63
2021/05/18 04:18:07;;;;;;;10.30;7.93;;;;;;;-144.99;nan;52407.31;4992544;28;20309;-62
2021/05/18 04:20:50;;;;;;;18.23;10.40;;;;;;;-144.99;nan;52395.09;5005844;28;20221;-64
2021/05/18 04:23:26;;;;;;;9.23;5.70;;;;;;;-144.99;nan;52376.75;4995482;28;20202;-62
2021/05/18 04:51:21;;;;;;;12.57;6.83;;;;;;;-144.99;nan;52384.91;4994665;28;20210;-64
2021/05/18 04:54:07;;;;;;;8.73;6.97;;;;;;;-144.99;nan;52329.88;5002453;28;20234;-67
2021/05/18 04:59:42;;;;;;;13.80;8.90;;;;;;;-144.99;nan;52403.25;4948491;28;20208;-67
2021/05/18 05:02:38;;;;;;;14.77;8.33;;;;;;;-144.99;nan;52415.47;4945404;29;20221;-66
2021/05/18 05:07:57;;;;;;;10.70;5.80;;;;;;;-144.99;nan;52384.91;4994772;28;20294;-68
2021/05/18 05:12:18;;;;;;;8.83;5.43;;;;;;;-144.99;nan;52364.53;4298835;28;10000523;-67
2021/05/18 05:16:07;;;;;;;9.17;5.53;;;;;;;-144.99;nan;52354.34;4989417;28;20199;-68
2021/05/18 05:18:33;;;;;;;7.20;4.93;;;;;;;-144.99;nan;52358.41;4988951;28;20216;-69
2021/05/18 05:21:03;;;;;;;12.97;6.33;;;;;;;-144.99;nan;52378.78;4990151;28;20211;-67
2021/05/18 05:23:29;;;;;;;8.80;5.77;;;;;;;-144.99;nan;52329.88;4989031;28;20714;-69
2021/05/18 05:25:55;;;;;;;11.70;5.60;;;;;;;-144.99;nan;52362.50;4989511;28;20289;-70
2021/05/18 05:28:24;;;;;;;9.20;6.97;;;;;;;-144.99;nan;52391.03;4989157;28;20281;-70
2021/05/18 05:30:53;;;;;;;12.97;5.20;;;;;;;-144.99;nan;52382.88;4990480;28;20245;-68
2021/05/18 05:33:20;;;;;;;14.50;7.50;;;;;;;-144.99;nan;52356.38;4989002;28;20701;-69
2021/05/18 05:35:49;;;;;;;8.70;5.27;;;;;;;-144.99;nan;52362.50;4989489;28;20210;-69
2021/05/18 05:38:21;;;;;;;10.17;4.93;;;;;;;-144.99;nan;52366.56;4989499;28;20235;-69
2021/05/18 05:40:47;;;;;;;11.47;6.37;;;;;;;-144.99;nan;52378.78;4990479;28;20477;-69
2021/05/18 05:43:19;;;;;;;7.97;5.20;;;;;;;-144.99;nan;52374.72;4988973;28;20232;-68
2021/05/18 05:45:45;;;;;;;11.83;7.07;;;;;;;-144.99;nan;52346.19;4987799;28;20693;-68
2021/05/18 05:48:18;;;;;;;12.93;7.03;;;;;;;-144.99;nan;52342.09;4994803;28;20825;-68
2021/05/18 05:50:48;;;;;;;10.30;6.53;;;;;;;-144.99;nan;52376.75;4994313;28;20231;-70
2021/05/18 05:53:18;;;;;;;10.40;5.20;;;;;;;-144.99;nan;52370.63;4994690;28;20236;-69
2021/05/18 05:55:44;;;;;;;10.17;5.53;;;;;;;-144.99;nan;52380.84;4988461;28;20286;-68
2021/05/18 05:58:13;;;;;;;9.57;5.27;;;;;;;-144.99;nan;52358.41;4993227;28;20235;-69
2021/05/18 06:00:39;;;;;;;9.20;6.17;;;;;;;-144.99;nan;52358.41;4990614;28;20223;-70
2021/05/18 06:03:08;;;;;;;14.30;6.27;;;;;;;-144.99;nan;52376.75;5000134;28;20443;-70
2021/05/18 06:05:37;;;;;;;16.33;7.37;;;;;;;-144.99;nan;52388.97;4992352;28;20224;-68
2021/05/18 06:08:06;;;;;;;12.17;7.60;;;;;;;-144.99;nan;52386.94;5000479;28;20258;-69
2021/05/18 06:10:36;;;;;;;16.80;8.03;;;;;;;-144.99;nan;52380.84;4997089;28;20430;-69
2021/05/18 06:13:16;;;;;;;14.10;7.47;;;;;;;-144.99;nan;52399.19;4988821;28;20211;-68
2021/05/18 06:43:47;;;;;;;11.03;6.80;;;;;;;-144.99;nan;52340.06;4988325;28;20202;-69
2021/05/18 06:46:20;;;;;;;13.10;9.10;;;;;;;-144.99;nan;52388.97;4983158;28;20769;-69
2021/05/18 06:48:56;;;;;;;14.00;9.27;;;;;;;-144.99;nan;52346.19;4988291;28;20203;-69
2021/05/18 06:51:23;;;;;;;14.10;8.47;;;;;;;-144.99;nan;52388.97;4988676;28;20225;-68
2021/05/18 06:53:49;;;;;;;16.20;6.80;;;;;;;-144.99;nan;52374.72;4981590;28;20768;-68
2021/05/18 06:56:20;;;;;;;17.67;7.70;;;;;;;-144.99;nan;52366.56;4988029;28;20227;-69
2021/05/18 07:01:37;;;;;;;17.70;11.17;;;;;;;-144.99;nan;52309.50;4987921;28;20292;-69
2021/05/18 07:04:08;;;;;;;11.23;7.77;;;;;;;-144.99;nan;52348.22;4987526;28;20654;-69
2021/05/18 07:06:44;;;;;;;9.07;6.23;;;;;;;-144.99;nan;52366.56;4987884;28;20267;-69
2021/05/18 07:09:10;;;;;;;12.60;7.67;;;;;;;-144.99;nan;52366.56;4986243;28;20202;-69
2021/05/18 07:11:41;;;;;;;11.33;8.27;;;;;;;-144.99;nan;52378.78;4988257;28;20315;-70
2021/05/18 07:14:11;;;;;;;13.47;8.53;;;;;;;-144.99;nan;52329.88;4975989;28;20803;-71
2021/05/18 07:16:37;;;;;;;14.20;7.30;;;;;;;-144.99;nan;52354.34;4988062;28;20246;-72
2021/05/18 07:19:04;;;;;;;14.47;10.17;;;;;;;-144.99;nan;52317.66;4988422;28;20257;-68
2021/05/18 07:21:30;;;;;;;12.60;9.00;;;;;;;-144.99;nan;52382.88;4988292;28;20218;-69
2021/05/18 07:23:56;;;;;;;8.93;7.30;;;;;;;-144.99;nan;52338.03;4988044;28;20211;-72
2021/05/18 07:26:28;;;;;;;11.73;8.03;;;;;;;-144.99;nan;52321.72;4987868;28;20285;-71
2021/05/18 07:28:54;;;;;;;15.30;7.93;;;;;;;-144.99;nan;52360.44;4980223;28;20218;-71
2021/05/18 07:31:27;;;;;;;11.13;7.50;;;;;;;-144.99;nan;52342.09;4988127;28;20207;-69
2021/05/18 07:33:53;;;;;;;10.57;6.63;;;;;;;-144.99;nan;52295.22;4980857;28;20230;-69
2021/05/18 07:36:22;;;;;;;14.77;7.47;;;;;;;-144.99;nan;52305.41;4988200;28;20234;-69
2021/05/18 07:38:51;;;;;;;9.97;6.47;;;;;;;-144.99;nan;52358.41;4989276;28;20204;-69
2021/05/18 07:41:20;;;;;;;10.10;6.83;;;;;;;-144.99;nan;52366.56;4989194;28;20207;-69
2021/05/18 07:43:49;;;;;;;10.10;5.63;;;;;;;-144.99;nan;52321.72;4987866;28;20238;-69
2021/05/18 07:46:18;;;;;;;9.63;5.40;;;;;;;-144.99;nan;52342.09;4987704;28;20219;-69
2021/05/18 07:49:06;;;;;;;8.03;5.80;;;;;;;-144.99;nan;52329.88;4987806;28;20215;-69
2021/05/18 07:51:41;;;;;;;11.40;6.97;;;;;;;-144.99;nan;52280.97;4986508;28;20208;-70
2021/05/18 07:59:47;;;;;;;11.93;5.30;;;;;;;-144.99;nan;52338.03;4986001;28;20230;-68
2021/05/18 08:05:16;;;;;;;10.67;7.33;;;;;;;-144.99;nan;52317.66;4988164;28;20226;-69
2021/05/18 08:05:26;;;;;;;8.87;5.17;;;;;;;-144.99;nan;52350.25;4987756;28;20451;-70
2021/05/18 08:07:55;;;;;;;7.93;6.27;;;;;;;-144.99;nan;52313.56;4979562;28;20224;-69
2021/05/18 08:10:32;;;;;;;11.87;5.77;;;;;;;-144.99;nan;52333.94;4986338;28;20674;-70
2021/05/18 08:13:01;;;;;;;9.83;6.80;;;;;;;-144.99;nan;52321.72;4993269;28;20208;-71
2021/05/18 08:18:31;;;;;;;13.07;7.23;;;;;;;-144.99;nan;52264.66;4994327;28;20552;-70
2021/05/18 10:15:18;;;;;;;7.07;5.37;;;;;;;-144.99;nan;52386.94;4993234;28;20349;-70
2021/05/18 10:35:04;;;;;;;4.20;3.17;;;;;;;-144.99;nan;52388.97;4997033;28;20215;-72
2021/05/18 10:37:39;;;;;;;4.10;3.20;;;;;;;-144.99;nan;52374.72;4990613;28;20226;-69
2021/05/18 10:40:25;;;;;;;7.40;3.90;;;;;;;-144.99;nan;52366.56;4994752;28;20210;-71
2021/05/18 10:43:11;;;;;;;6.20;3.77;;;;;;;-144.99;nan;52356.38;4986855;28;20215;-69
2021/05/18 10:46:16;;;;;;;5.60;4.33;;;;;;;-144.99;nan;52350.25;4993428;28;20219;-71
2021/05/18 10:49:21;;;;;;;10.50;3.67;;;;;;;-144.99;nan;52362.50;4999063;28;20214;-69
2021/05/18 10:51:53;;;;;;;5.17;4.33;;;;;;;-144.99;nan;52358.41;4992543;28;20206;-70
2021/05/18 10:54:31;;;;;;;5.37;3.73;;;;;;;-144.99;nan;52340.06;4995059;28;20313;-71
2021/05/18 10:57:19;;;;;;;4.17;2.47;;;;;;;-144.99;nan;52362.50;4993743;28;20238;-70
2021/05/18 10:59:54;;;;;;;3.87;2.53;;;;;;;-144.99;nan;52411.41;5002826;28;20655;-69
2021/05/18 11:02:26;;;;;;;4.17;3.43;;;;;;;-144.99;nan;52362.50;5005731;28;20231;-70
2021/05/18 11:04:57;;;;;;;4.40;3.50;;;;;;;-144.99;nan;52382.88;4999663;28;20191;-71
2021/05/18 11:07:34;;;;;;;5.20;3.97;;;;;;;-144.99;nan;52409.38;5010457;28;20227;-71
2021/05/18 11:10:10;;;;;;;8.13;4.17;;;;;;;-144.99;nan;52411.41;4987623;28;20573;-70
2021/05/18 11:12:38;;;;;;;6.20;3.63;;;;;;;-144.99;nan;52407.31;4986169;28;20644;-70
2021/05/18 11:15:13;;;;;;;7.10;4.53;;;;;;;-144.99;nan;52378.78;4988344;28;20236;-69
2021/05/18 11:17:43;;;;;;;6.07;4.47;;;;;;;-144.99;nan;52358.41;4989211;28;20230;-70
2021/05/18 11:20:26;;;;;;;7.13;4.70;;;;;;;-144.99;nan;52338.03;4996738;28;20333;-70
2021/05/18 11:25:47;;;;;;;8.17;4.90;;;;;;;-144.99;nan;52374.72;4981630;28;20835;-72
2021/05/18 11:28:17;;;;;;;6.27;4.90;;;;;;;-144.99;nan;52386.94;4987741;28;20227;-72
2021/05/18 11:30:48;;;;;;;6.50;4.67;;;;;;;-144.99;nan;52354.34;4991035;28;20244;-70
2021/05/18 11:33:18;;;;;;;6.80;3.93;;;;;;;-144.99;nan;52354.34;4989581;28;20217;-70
2021/05/18 11:35:44;;;;;;;34.30;21.70;;;;;;;-144.99;nan;52317.66;4997089;28;20219;-70
2021/05/18 11:38:15;;;;;;;13.27;6.83;;;;;;;-144.99;nan;52313.56;4996159;28;20257;-72
2021/05/18 11:40:53;;;;;;;5.90;4.13;;;;;;;-144.99;nan;52268.72;4994069;28;20223;-71
2021/05/18 11:43:25;;;;;;;4.47;3.03;;;;;;;-144.99;nan;52289.13;4987582;28;20595;-70
2021/05/18 11:46:03;;;;;;;3.13;1.70;;;;;;;-144.99;nan;52325.81;4990494;28;20239;-70
2021/05/18 11:48:36;;;;;;;2.00;1.60;;;;;;;-144.99;nan;52305.41;4998577;28;20293;-69
2021/05/18 11:51:06;;;;;;;1.70;1.40;;;;;;;-144.99;nan;52325.81;5002359;28;20283;-72
2021/05/18 11:53:36;;;;;;;2.90;1.83;;;;;;;-144.99;nan;52313.56;5000727;28;20234;-72
2021/05/18 11:56:17;;;;;;;2.47;1.87;;;;;;;-144.99;nan;52309.50;5002922;28;20286;-71
2021/05/18 11:58:43;;;;;;;1.77;1.17;;;;;;;-144.99;nan;52311.53;5005135;28;20226;-71
2021/05/18 12:01:09;;;;;;;3.37;1.30;;;;;;;-144.99;nan;52297.25;4991845;28;20216;-69
2021/05/18 12:03:36;;;;;;;3.50;3.20;;;;;;;-144.99;nan;52297.25;4999389;28;20239;-69
2021/05/18 12:06:04;;;;;;;1.13;1.03;;;;;;;-144.99;nan;52264.66;5003215;28;20202;-70
2021/05/18 12:08:36;;;;;;;1.60;1.03;;;;;;;-144.99;nan;52293.19;4999325;28;20631;-70
2021/05/18 12:11:18;;;;;;;1.33;0.80;;;;;;;-144.99;nan;52276.88;4991417;28;20263;-70
2021/05/18 12:13:48;;;;;;;2.67;0.60;;;;;;;-144.99;nan;52305.41;4991196;28;20770;-71
2021/05/18 12:16:19;;;;;;;1.20;0.80;;;;;;;-144.99;nan;52301.34;4992777;28;20323;-70
2021/05/18 12:18:57;;;;;;;5.17;4.10;;;;;;;-144.99;nan;52287.06;4997889;28;20237;-71
2021/05/18 12:21:32;;;;;;;1.17;0.70;;;;;;;-144.99;nan;52276.88;5008608;28;20231;-71
2021/05/18 12:24:07;;;;;;;2.03;1.07;;;;;;;-144.99;nan;52278.91;4999051;28;20218;-73
2021/05/18 12:26:35;;;;;;;0.87;0.47;;;;;;;-144.99;nan;52232.03;4991718;28;20246;-72
2021/05/18 12:29:06;;;;;;;1.50;0.87;;;;;;;-144.99;nan;52232.03;4990958;28;20221;-73
2021/05/18 12:31:39;;;;;;;0.83;0.70;;;;;;;-144.99;nan;52260.56;4990810;28;20297;-70
2021/05/18 12:34:06;;;;;;;1.43;0.73;;;;;;;-144.99;nan;52223.88;4992970;28;20254;-70
2021/05/18 12:36:51;;;;;;;1.77;0.80;;;;;;;-144.99;nan;52276.88;4998267;28;20696;-69
2021/05/18 12:39:18;;;;;;;3.50;0.63;;;;;;;-144.99;nan;52276.88;4999138;28;20680;-70
2021/05/18 12:42:09;;;;;;;1.83;0.50;;;;;;;-144.99;nan;52232.03;4995440;28;20211;-70
2021/05/18 12:44:55;;;;;;;0.97;0.80;;;;;;;-144.99;nan;52260.56;4999215;28;20265;-70
2021/05/18 12:47:29;;;;;;;1.53;0.90;;;;;;;-144.99;nan;52285.03;4991984;28;20516;-71
2021/05/18 12:50:02;;;;;;;2.33;0.70;;;;;;;-144.99;nan;52252.44;4991951;28;20588;-71
2021/05/18 12:52:36;;;;;;;1.50;0.77;;;;;;;-144.99;nan;52244.28;4990986;28;20210;-72
2021/05/18 12:55:15;;;;;;;1.03;0.80;;;;;;;-144.99;nan;52195.34;4991811;28;20234;-70
2021/05/18 12:57:50;;;;;;;1.77;0.93;;;;;;;-144.99;nan;52191.28;4989259;28;20643;-69
2021/05/18 13:00:24;;;;;;;1.87;1.33;;;;;;;-144.99;nan;52221.84;4992146;28;20212;-71
2021/05/18 13:02:52;;;;;;;1.57;1.00;;;;;;;-144.99;nan;52293.19;4989104;28;20704;-69
2021/05/18 13:05:22;;;;;;;2.43;1.67;;;;;;;-144.99;nan;52301.34;4995880;28;20632;-69
2021/05/18 13:08:15;;;;;;;3.87;1.70;;;;;;;-144.99;nan;52329.88;4999781;28;20238;-70
2021/05/18 13:10:53;;;;;;;1.83;1.37;;;;;;;-144.99;nan;52280.97;4995008;28;20383;-69
2021/05/18 13:13:22;;;;;;;1.93;1.30;;;;;;;-144.99;nan;52313.56;4991550;28;20223;-72
2021/05/18 13:15:52;;;;;;;2.47;1.27;;;;;;;-144.99;nan;52354.34;4985234;28;20262;-71
2021/05/18 13:18:18;;;;;;;4.27;1.67;;;;;;;-144.99;nan;52370.63;4991279;28;20679;-68
2021/05/18 13:20:51;;;;;;;4.67;2.07;;;;;;;-144.99;nan;52338.03;4991235;28;20207;-71
2021/05/18 13:23:25;;;;;;;2.67;1.67;;;;;;;-144.99;nan;52362.50;4991192;28;20231;-68
2021/05/18 13:28:45;;;;;;;3.53;1.83;;;;;;;-144.99;nan;52362.50;4983171;28;20305;-70
2021/05/18 13:31:15;;;;;;;3.57;2.07;;;;;;;-144.99;nan;52350.25;4982436;28;20288;-69
2021/05/18 13:33:46;;;;;;;1.87;1.27;;;;;;;-144.99;nan;52378.78;4995144;28;20215;-68
2021/05/18 13:36:15;;;;;;;3.20;1.50;;;;;;;-144.99;nan;52368.59;4994198;28;20207;-69
2021/05/18 13:38:44;;;;;;;2.70;2.10;;;;;;;-144.99;nan;52378.78;4982602;28;20222;-69
2021/05/18 13:41:19;;;;;;;1.57;1.00;;;;;;;-144.99;nan;52395.09;4990349;28;20214;-69
2021/05/18 13:43:46;;;;;;;2.03;1.67;;;;;;;-144.99;nan;52374.72;4989671;28;20207;-69
2021/05/18 13:46:12;;;;;;;3.67;1.20;;;;;;;-144.99;nan;52321.72;4989780;28;20218;-70
2021/05/18 13:48:38;;;;;;;1.60;1.07;;;;;;;-144.99;nan;52333.94;4989386;28;20221;-67
2021/05/18 13:51:10;;;;;;;2.53;1.27;;;;;;;-144.99;nan;52350.25;4989377;28;20732;-68
2021/05/18 13:53:36;;;;;;;2.07;1.20;;;;;;;-144.99;nan;52346.19;4987716;28;20219;-69
2021/05/18 13:56:05;;;;;;;1.77;1.10;;;;;;;-144.99;nan;52309.50;4989354;28;20245;-69
2021/05/18 13:58:32;;;;;;;1.83;0.90;;;;;;;-144.99;nan;52268.72;4986932;28;20263;-69
2021/05/18 14:00:59;;;;;;;1.50;0.97;;;;;;;-144.99;nan;52321.72;4994110;28;20215;-71
2021/05/18 14:03:25;;;;;;;1.53;1.10;;;;;;;-144.99;nan;52270.78;4647691;28;9999736;-70
2021/05/18 14:05:51;;;;;;;1.50;1.03;;;;;;;-144.99;nan;52293.19;4990845;28;20211;-73
2021/05/18 14:08:31;;;;;;;4.20;1.63;;;;;;;-144.99;nan;52256.50;4990450;28;20272;-69
2021/05/18 14:11:06;;;;;;;2.53;1.50;;;;;;;-144.99;nan;52264.66;4990434;28;20208;-70
2021/05/18 14:13:41;;;;;;;3.43;2.10;;;;;;;-144.99;nan;52252.44;4991913;28;20203;-70
2021/05/18 14:16:09;;;;;;;4.90;3.30;;;;;;;-144.99;nan;52248.34;4991349;28;20284;-71
2021/05/18 14:18:39;;;;;;;5.07;1.43;;;;;;;-144.99;nan;52280.97;4992117;28;20287;-70
2021/05/18 14:21:09;;;;;;;3.50;1.70;;;;;;;-144.99;nan;52252.44;4992550;28;20208;-70
2021/05/18 14:23:47;;;;;;;2.33;1.50;;;;;;;-144.99;nan;52236.13;4992493;28;20207;-72
2021/05/18 14:26:13;;;;;;;2.77;1.63;;;;;;;-144.99;nan;52276.88;4989562;28;20756;-70
2021/05/18 14:28:40;;;;;;;3.80;2.40;;;;;;;-144.99;nan;52280.97;4991610;28;20238;-70
2021/05/18 14:31:10;;;;;;;2.27;1.77;;;;;;;-144.99;nan;52285.03;4992767;28;20203;-71
2021/05/18 14:33:40;;;;;;;4.10;2.33;;;;;;;-144.99;nan;52317.66;4990395;28;20204;-71
2021/05/18 14:36:13;;;;;;;2.60;1.90;;;;;;;-144.99;nan;52305.41;4992332;28;20345;-70
2021/05/18 14:38:44;;;;;;;3.77;1.60;;;;;;;-144.99;nan;52344.16;4990989;28;20483;-70
2021/05/18 14:46:44;;;;;;;4.07;2.23;;;;;;;-144.99;nan;52325.81;4993335;28;20231;-70
2021/05/18 14:57:28;;;;;;;2.80;2.23;;;;;;;-144.99;nan;52315.59;4988176;28;20220;-70
2021/05/18 14:59:57;;;;;;;3.03;2.10;;;;;;;-144.99;nan;52329.88;4992042;28;20214;-72
2021/05/18 15:02:24;;;;;;;5.33;2.33;;;;;;;-144.99;nan;52346.19;4991916;28;20572;-70
2021/05/18 15:04:50;;;;;;;4.30;2.07;;;;;;;-144.99;nan;52305.41;4991447;28;20693;-70
2021/05/18 15:07:19;;;;;;;2.43;1.83;;;;;;;-144.99;nan;52358.41;4990451;28;20697;-69
2021/05/18 15:09:49;;;;;;;3.77;2.40;;;;;;;-144.99;nan;52354.34;4988595;28;20214;-69
2021/05/18 15:12:16;;;;;;;2.57;2.00;;;;;;;-144.99;nan;52346.19;4996319;28;20215;-70
2021/05/18 15:14:43;;;;;;;2.30;1.80;;;;;;;-144.99;nan;52386.94;4997294;28;20252;-70
2021/05/18 15:17:09;;;;;;;2.67;1.90;;;;;;;-144.99;nan;52333.94;4992130;28;20323;-69
2021/05/18 15:19:36;;;;;;;3.50;1.93;;;;;;;-144.99;nan;52338.03;4990396;28;20235;-69
2021/05/18 15:22:11;;;;;;;3.13;1.93;;;;;;;-144.99;nan;52350.25;4990871;28;20241;-69
2021/05/18 15:24:41;;;;;;;2.10;1.60;;;;;;;-144.99;nan;52329.88;4989477;28;20298;-71
2021/05/18 15:27:11;;;;;;;3.10;1.93;;;;;;;-144.99;nan;52305.41;4990694;28;20781;-69
2021/05/18 15:29:37;;;;;;;4.47;1.87;;;;;;;-144.99;nan;52366.56;4990500;28;20210;-68
2021/05/18 15:32:05;;;;;;;3.90;2.03;;;;;;;-144.99;nan;52378.78;4993654;28;20239;-71
2021/05/18 15:34:35;;;;;;;2.47;1.73;;;;;;;-144.99;nan;52354.34;4996591;28;20238;-70
2021/05/18 15:37:05;;;;;;;2.87;1.63;;;;;;;-144.99;nan;52370.63;4991439;28;20278;-69
2021/05/18 15:39:40;;;;;;;4.37;2.07;;;;;;;-144.99;nan;52350.25;4991595;28;20299;-70
2021/05/18 15:42:14;;;;;;;3.23;1.60;;;;;;;-144.99;nan;52354.34;4997759;28;20294;-71
2021/05/18 15:44:41;;;;;;;4.63;1.67;;;;;;;-144.99;nan;52386.94;4991091;28;20213;-70
2021/05/18 15:47:07;;;;;;;2.33;1.63;;;;;;;-144.99;nan;52350.25;4990732;28;20254;-69
2021/05/18 15:49:36;;;;;;;4.07;2.07;;;;;;;-144.99;nan;52342.09;4990312;28;20692;-70
2021/05/18 15:52:06;;;;;;;2.80;1.83;;;;;;;-144.99;nan;52346.19;4990623;28;20203;-69
2021/05/18 15:54:33;;;;;;;4.93;2.40;;;;;;;-144.99;nan;52323.75;4990330;28;20266;-70
2021/05/18 15:57:00;;;;;;;2.53;1.53;;;;;;;-144.99;nan;52350.25;4990435;28;20755;-71
2021/05/18 15:59:29;;;;;;;3.17;2.23;;;;;;;-144.99;nan;52307.47;4990584;28;20223;-69
2021/05/18 16:01:56;;;;;;;3.17;1.90;;;;;;;-144.99;nan;52358.41;4990350;28;20491;-70
2021/05/18 16:04:23;;;;;;;3.37;2.13;;;;;;;-144.99;nan;52350.25;4991534;28;20204;-69
2021/05/18 16:06:53;;;;;;;7.07;2.13;;;;;;;-144.99;nan;52346.19;4991416;28;20244;-68
2021/05/18 16:09:19;;;;;;;5.17;2.57;;;;;;;-144.99;nan;52358.41;4991408;28;20224;-69
2021/05/18 16:11:47;;;;;;;5.47;2.60;;;;;;;-144.99;nan;52364.53;4992117;28;20212;-70